sensor_id;sensor_type;location;lat;lon;timestamp;P1;durP1;ratioP1;P2;durP2;ratioP2
11039;SDS011;5573;49.592;8.662;2023-12-14T00:01:30;38.27;;;36.17;;
11039;SDS011;5573;49.592;8.662;2023-12-14T00:04:00;39.00;;;36.67;;
11039;SDS011;5573;49.592;8.662;2023-12-14T00:06:29;36.93;;;34.97;;
11039;SDS011;5573;49.592;8.662;2023-12-14T00:08:57;32.33;;;30.63;;
11039;SDS011;5573;49.592;8.662;2023-12-14T00:11:25;36.47;;;34.47;;
11039;SDS011;5573;49.592;8.662;2023-12-14T00:13:53;36.60;;;34.60;;
11039;SDS011;5573;49.592;8.662;2023-12-14T00:16:21;35.00;;;33.07;;
11039;SDS011;5573;49.592;8.662;2023-12-14T00:18:48;35.40;;;33.43;;
11039;SDS011;5573;49.592;8.662;2023-12-14T00:21:18;35.70;;;33.67;;
11039;SDS011;5573;49.592;8.662;2023-12-14T00:23:46;36.33;;;34.40;;
11039;SDS011;5573;49.592;8.662;2023-12-14T00:26:13;37.43;;;35.37;;
11039;SDS011;5573;49.592;8.662;2023-12-14T00:28:42;32.97;;;31.17;;
11039;SDS011;5573;49.592;8.662;2023-12-14T00:31:09;32.63;;;30.83;;
11039;SDS011;5573;49.592;8.662;2023-12-14T00:33:37;32.53;;;30.77;;
11039;SDS011;5573;49.592;8.662;2023-12-14T00:36:05;37.63;;;35.50;;
11039;SDS011;5573;49.592;8.662;2023-12-14T00:38:35;33.17;;;31.37;;
11039;SDS011;5573;49.592;8.662;2023-12-14T00:41:03;34.93;;;33.07;;
11039;SDS011;5573;49.592;8.662;2023-12-14T00:43:31;37.50;;;35.50;;
11039;SDS011;5573;49.592;8.662;2023-12-14T00:45:59;37.73;;;35.73;;
11039;SDS011;5573;49.592;8.662;2023-12-14T00:48:26;39.50;;;37.33;;
11039;SDS011;5573;49.592;8.662;2023-12-14T00:50:54;34.43;;;32.53;;
11039;SDS011;5573;49.592;8.662;2023-12-14T00:53:22;35.10;;;33.13;;
11039;SDS011;5573;49.592;8.662;2023-12-14T00:55:51;33.07;;;31.20;;
11039;SDS011;5573;49.592;8.662;2023-12-14T00:58:19;35.23;;;33.20;;
11039;SDS011;5573;49.592;8.662;2023-12-14T01:00:47;37.43;;;35.30;;
11039;SDS011;5573;49.592;8.662;2023-12-14T01:03:15;38.20;;;36.13;;
11039;SDS011;5573;49.592;8.662;2023-12-14T01:05:43;38.63;;;36.60;;
11039;SDS011;5573;49.592;8.662;2023-12-14T01:08:11;41.53;;;39.20;;
11039;SDS011;5573;49.592;8.662;2023-12-14T01:10:38;40.27;;;38.03;;
11039;SDS011;5573;49.592;8.662;2023-12-14T01:13:08;40.03;;;37.63;;
11039;SDS011;5573;49.592;8.662;2023-12-14T01:15:36;39.00;;;36.80;;
11039;SDS011;5573;49.592;8.662;2023-12-14T01:18:04;34.53;;;32.67;;
11039;SDS011;5573;49.592;8.662;2023-12-14T01:20:32;36.77;;;34.77;;
11039;SDS011;5573;49.592;8.662;2023-12-14T01:23:00;40.60;;;38.30;;
11039;SDS011;5573;49.592;8.662;2023-12-14T01:25:28;37.87;;;35.80;;
11039;SDS011;5573;49.592;8.662;2023-12-14T01:27:56;39.87;;;37.70;;
11039;SDS011;5573;49.592;8.662;2023-12-14T01:30:25;35.83;;;33.80;;
11039;SDS011;5573;49.592;8.662;2023-12-14T01:32:53;37.40;;;35.43;;
11039;SDS011;5573;49.592;8.662;2023-12-14T01:35:21;35.10;;;33.23;;
11039;SDS011;5573;49.592;8.662;2023-12-14T01:37:48;35.23;;;33.30;;
11039;SDS011;5573;49.592;8.662;2023-12-14T01:40:18;39.80;;;37.63;;
11039;SDS011;5573;49.592;8.662;2023-12-14T01:42:46;39.10;;;36.97;;
11039;SDS011;5573;49.592;8.662;2023-12-14T01:45:14;37.63;;;35.63;;
11039;SDS011;5573;49.592;8.662;2023-12-14T01:47:44;37.00;;;34.93;;
11039;SDS011;5573;49.592;8.662;2023-12-14T01:50:12;39.00;;;36.83;;
11039;SDS011;5573;49.592;8.662;2023-12-14T01:52:40;35.70;;;33.70;;
11039;SDS011;5573;49.592;8.662;2023-12-14T01:55:08;32.47;;;30.60;;
11039;SDS011;5573;49.592;8.662;2023-12-14T01:57:36;33.83;;;32.03;;
11039;SDS011;5573;49.592;8.662;2023-12-14T02:00:05;34.93;;;33.07;;
11039;SDS011;5573;49.592;8.662;2023-12-14T02:02:34;32.83;;;30.97;;
11039;SDS011;5573;49.592;8.662;2023-12-14T02:05:06;33.20;;;31.43;;
11039;SDS011;5573;49.592;8.662;2023-12-14T02:07:33;35.63;;;33.73;;
11039;SDS011;5573;49.592;8.662;2023-12-14T02:10:01;32.57;;;30.83;;
11039;SDS011;5573;49.592;8.662;2023-12-14T02:12:30;33.60;;;31.73;;
11039;SDS011;5573;49.592;8.662;2023-12-14T02:15:00;33.47;;;31.60;;
11039;SDS011;5573;49.592;8.662;2023-12-14T02:17:28;36.53;;;34.43;;
11039;SDS011;5573;49.592;8.662;2023-12-14T02:19:55;35.13;;;33.23;;
11039;SDS011;5573;49.592;8.662;2023-12-14T02:22:25;36.73;;;34.77;;
11039;SDS011;5573;49.592;8.662;2023-12-14T02:24:54;34.83;;;32.97;;
11039;SDS011;5573;49.592;8.662;2023-12-14T02:27:21;36.57;;;34.60;;
11039;SDS011;5573;49.592;8.662;2023-12-14T02:29:49;35.53;;;33.57;;
11039;SDS011;5573;49.592;8.662;2023-12-14T02:32:17;35.73;;;33.83;;
11039;SDS011;5573;49.592;8.662;2023-12-14T02:34:48;35.20;;;33.27;;
11039;SDS011;5573;49.592;8.662;2023-12-14T02:37:16;33.50;;;31.60;;
11039;SDS011;5573;49.592;8.662;2023-12-14T02:39:44;32.27;;;30.50;;
11039;SDS011;5573;49.592;8.662;2023-12-14T02:42:14;33.47;;;31.67;;
11039;SDS011;5573;49.592;8.662;2023-12-14T02:44:42;34.07;;;32.20;;
11039;SDS011;5573;49.592;8.662;2023-12-14T02:47:10;38.23;;;36.13;;
11039;SDS011;5573;49.592;8.662;2023-12-14T02:49:38;37.67;;;35.57;;
11039;SDS011;5573;49.592;8.662;2023-12-14T02:52:06;36.40;;;34.47;;
11039;SDS011;5573;49.592;8.662;2023-12-14T02:54:33;35.53;;;33.57;;
11039;SDS011;5573;49.592;8.662;2023-12-14T02:57:01;34.47;;;32.67;;
11039;SDS011;5573;49.592;8.662;2023-12-14T02:59:30;35.73;;;33.73;;
11039;SDS011;5573;49.592;8.662;2023-12-14T03:01:58;35.73;;;33.70;;
11039;SDS011;5573;49.592;8.662;2023-12-14T03:04:27;34.97;;;33.03;;
11039;SDS011;5573;49.592;8.662;2023-12-14T03:06:54;37.30;;;35.27;;
11039;SDS011;5573;49.592;8.662;2023-12-14T03:09:22;33.60;;;31.80;;
11039;SDS011;5573;49.592;8.662;2023-12-14T03:11:50;37.27;;;35.33;;
11039;SDS011;5573;49.592;8.662;2023-12-14T03:14:18;36.93;;;34.93;;
11039;SDS011;5573;49.592;8.662;2023-12-14T03:16:47;37.27;;;35.27;;
11039;SDS011;5573;49.592;8.662;2023-12-14T03:19:15;36.10;;;34.17;;
11039;SDS011;5573;49.592;8.662;2023-12-14T03:21:43;36.27;;;34.20;;
11039;SDS011;5573;49.592;8.662;2023-12-14T03:24:11;35.57;;;33.67;;
11039;SDS011;5573;49.592;8.662;2023-12-14T03:26:39;35.37;;;33.43;;
11039;SDS011;5573;49.592;8.662;2023-12-14T03:29:06;33.53;;;31.67;;
11039;SDS011;5573;49.592;8.662;2023-12-14T03:31:35;34.87;;;33.00;;
11039;SDS011;5573;49.592;8.662;2023-12-14T03:34:04;36.50;;;34.50;;
11039;SDS011;5573;49.592;8.662;2023-12-14T03:36:32;34.40;;;32.50;;
11039;SDS011;5573;49.592;8.662;2023-12-14T03:38:59;34.23;;;32.13;;
11039;SDS011;5573;49.592;8.662;2023-12-14T03:41:27;37.07;;;34.93;;
11039;SDS011;5573;49.592;8.662;2023-12-14T03:43:55;36.87;;;34.73;;
11039;SDS011;5573;49.592;8.662;2023-12-14T03:46:23;35.30;;;33.43;;
11039;SDS011;5573;49.592;8.662;2023-12-14T03:48:51;34.80;;;32.87;;
11039;SDS011;5573;49.592;8.662;2023-12-14T03:51:20;37.67;;;35.60;;
11039;SDS011;5573;49.592;8.662;2023-12-14T03:53:48;33.33;;;31.57;;
11039;SDS011;5573;49.592;8.662;2023-12-14T03:56:16;35.43;;;33.37;;
11039;SDS011;5573;49.592;8.662;2023-12-14T03:58:44;34.73;;;32.83;;
11039;SDS011;5573;49.592;8.662;2023-12-14T04:01:15;34.77;;;32.77;;
11039;SDS011;5573;49.592;8.662;2023-12-14T04:03:44;36.17;;;34.17;;
11039;SDS011;5573;49.592;8.662;2023-12-14T04:06:12;37.97;;;35.93;;
11039;SDS011;5573;49.592;8.662;2023-12-14T04:08:41;33.80;;;32.03;;
11039;SDS011;5573;49.592;8.662;2023-12-14T04:11:09;36.20;;;34.23;;
11039;SDS011;5573;49.592;8.662;2023-12-14T04:13:38;33.53;;;31.77;;
11039;SDS011;5573;49.592;8.662;2023-12-14T04:16:06;36.03;;;34.13;;
11039;SDS011;5573;49.592;8.662;2023-12-14T04:18:34;32.00;;;30.30;;
11039;SDS011;5573;49.592;8.662;2023-12-14T04:21:04;37.47;;;35.40;;
11039;SDS011;5573;49.592;8.662;2023-12-14T04:23:32;31.57;;;29.87;;
11039;SDS011;5573;49.592;8.662;2023-12-14T04:26:01;32.50;;;30.73;;
11039;SDS011;5573;49.592;8.662;2023-12-14T04:28:29;31.77;;;30.07;;
11039;SDS011;5573;49.592;8.662;2023-12-14T04:30:57;34.43;;;32.53;;
11039;SDS011;5573;49.592;8.662;2023-12-14T04:33:25;32.43;;;30.67;;
11039;SDS011;5573;49.592;8.662;2023-12-14T04:35:53;38.93;;;36.83;;
11039;SDS011;5573;49.592;8.662;2023-12-14T04:38:21;35.93;;;34.03;;
11039;SDS011;5573;49.592;8.662;2023-12-14T04:40:48;35.63;;;33.70;;
11039;SDS011;5573;49.592;8.662;2023-12-14T04:43:18;35.90;;;33.97;;
11039;SDS011;5573;49.592;8.662;2023-12-14T04:45:45;35.07;;;33.10;;
11039;SDS011;5573;49.592;8.662;2023-12-14T04:48:13;36.57;;;34.50;;
11039;SDS011;5573;49.592;8.662;2023-12-14T04:50:41;33.83;;;32.00;;
11039;SDS011;5573;49.592;8.662;2023-12-14T04:53:09;39.57;;;37.47;;
11039;SDS011;5573;49.592;8.662;2023-12-14T04:55:37;37.33;;;35.13;;
11039;SDS011;5573;49.592;8.662;2023-12-14T04:58:04;38.60;;;36.50;;
11039;SDS011;5573;49.592;8.662;2023-12-14T05:00:34;34.97;;;33.03;;
11039;SDS011;5573;49.592;8.662;2023-12-14T05:03:02;34.93;;;32.97;;
11039;SDS011;5573;49.592;8.662;2023-12-14T05:05:29;35.93;;;33.97;;
11039;SDS011;5573;49.592;8.662;2023-12-14T05:07:57;40.43;;;38.30;;
11039;SDS011;5573;49.592;8.662;2023-12-14T05:10:25;34.53;;;32.63;;
11039;SDS011;5573;49.592;8.662;2023-12-14T05:12:53;36.17;;;34.17;;
11039;SDS011;5573;49.592;8.662;2023-12-14T05:15:21;39.33;;;37.10;;
11039;SDS011;5573;49.592;8.662;2023-12-14T05:17:50;38.20;;;36.17;;
11039;SDS011;5573;49.592;8.662;2023-12-14T05:20:18;37.40;;;35.30;;
11039;SDS011;5573;49.592;8.662;2023-12-14T05:22:47;38.33;;;36.27;;
11039;SDS011;5573;49.592;8.662;2023-12-14T05:25:15;38.03;;;35.93;;
11039;SDS011;5573;49.592;8.662;2023-12-14T05:27:43;37.83;;;35.77;;
11039;SDS011;5573;49.592;8.662;2023-12-14T05:30:11;37.37;;;35.37;;
11039;SDS011;5573;49.592;8.662;2023-12-14T05:32:39;35.70;;;33.70;;
11039;SDS011;5573;49.592;8.662;2023-12-14T05:35:08;38.63;;;36.40;;
11039;SDS011;5573;49.592;8.662;2023-12-14T05:37:38;37.03;;;35.00;;
11039;SDS011;5573;49.592;8.662;2023-12-14T05:40:06;37.60;;;35.53;;
11039;SDS011;5573;49.592;8.662;2023-12-14T05:42:35;36.93;;;34.93;;
11039;SDS011;5573;49.592;8.662;2023-12-14T05:45:04;37.97;;;35.93;;
11039;SDS011;5573;49.592;8.662;2023-12-14T05:47:37;37.30;;;35.10;;
11039;SDS011;5573;49.592;8.662;2023-12-14T05:50:06;38.57;;;36.43;;
11039;SDS011;5573;49.592;8.662;2023-12-14T05:52:38;39.60;;;37.43;;
11039;SDS011;5573;49.592;8.662;2023-12-14T05:55:07;37.27;;;35.23;;
11039;SDS011;5573;49.592;8.662;2023-12-14T05:57:35;38.00;;;35.93;;
11039;SDS011;5573;49.592;8.662;2023-12-14T06:00:03;39.00;;;36.80;;
11039;SDS011;5573;49.592;8.662;2023-12-14T06:02:33;37.67;;;35.53;;
11039;SDS011;5573;49.592;8.662;2023-12-14T06:05:04;38.27;;;36.23;;
11039;SDS011;5573;49.592;8.662;2023-12-14T06:07:34;36.33;;;34.37;;
11039;SDS011;5573;49.592;8.662;2023-12-14T06:10:03;39.60;;;37.47;;
11039;SDS011;5573;49.592;8.662;2023-12-14T06:12:31;38.83;;;36.73;;
11039;SDS011;5573;49.592;8.662;2023-12-14T06:15:00;38.70;;;36.57;;
11039;SDS011;5573;49.592;8.662;2023-12-14T06:17:27;43.17;;;40.57;;
11039;SDS011;5573;49.592;8.662;2023-12-14T06:19:57;42.17;;;39.73;;
11039;SDS011;5573;49.592;8.662;2023-12-14T06:22:24;39.07;;;36.83;;
11039;SDS011;5573;49.592;8.662;2023-12-14T06:24:52;41.83;;;39.33;;
11039;SDS011;5573;49.592;8.662;2023-12-14T06:27:21;42.93;;;40.37;;
11039;SDS011;5573;49.592;8.662;2023-12-14T06:29:53;44.50;;;41.80;;
11039;SDS011;5573;49.592;8.662;2023-12-14T06:32:20;41.00;;;38.70;;
11039;SDS011;5573;49.592;8.662;2023-12-14T06:34:48;40.80;;;38.20;;
11039;SDS011;5573;49.592;8.662;2023-12-14T06:37:17;43.13;;;40.60;;
11039;SDS011;5573;49.592;8.662;2023-12-14T06:39:45;41.80;;;39.47;;
11039;SDS011;5573;49.592;8.662;2023-12-14T06:42:13;39.03;;;36.80;;
11039;SDS011;5573;49.592;8.662;2023-12-14T06:44:43;43.47;;;40.83;;
11039;SDS011;5573;49.592;8.662;2023-12-14T06:47:10;41.77;;;39.40;;
11039;SDS011;5573;49.592;8.662;2023-12-14T06:49:40;43.20;;;40.60;;
11039;SDS011;5573;49.592;8.662;2023-12-14T06:52:08;45.10;;;42.53;;
11039;SDS011;5573;49.592;8.662;2023-12-14T06:54:36;44.30;;;41.87;;
11039;SDS011;5573;49.592;8.662;2023-12-14T06:57:03;41.83;;;39.43;;
11039;SDS011;5573;49.592;8.662;2023-12-14T06:59:31;41.70;;;39.37;;
11039;SDS011;5573;49.592;8.662;2023-12-14T07:02:01;44.67;;;42.07;;
11039;SDS011;5573;49.592;8.662;2023-12-14T07:04:29;40.57;;;38.13;;
11039;SDS011;5573;49.592;8.662;2023-12-14T07:06:56;41.87;;;39.50;;
11039;SDS011;5573;49.592;8.662;2023-12-14T07:09:25;40.00;;;37.83;;
11039;SDS011;5573;49.592;8.662;2023-12-14T07:11:52;38.77;;;36.63;;
11039;SDS011;5573;49.592;8.662;2023-12-14T07:14:20;42.07;;;39.40;;
11039;SDS011;5573;49.592;8.662;2023-12-14T07:16:51;39.50;;;37.23;;
11039;SDS011;5573;49.592;8.662;2023-12-14T07:19:20;35.73;;;33.83;;
11039;SDS011;5573;49.592;8.662;2023-12-14T07:21:48;41.97;;;39.47;;
11039;SDS011;5573;49.592;8.662;2023-12-14T07:24:16;42.20;;;39.70;;
11039;SDS011;5573;49.592;8.662;2023-12-14T07:26:44;38.90;;;36.73;;
11039;SDS011;5573;49.592;8.662;2023-12-14T07:29:11;42.40;;;39.90;;
11039;SDS011;5573;49.592;8.662;2023-12-14T07:31:39;41.70;;;39.37;;
11039;SDS011;5573;49.592;8.662;2023-12-14T07:34:07;41.23;;;38.83;;
11039;SDS011;5573;49.592;8.662;2023-12-14T07:36:37;40.53;;;38.20;;
11039;SDS011;5573;49.592;8.662;2023-12-14T07:39:04;43.60;;;41.03;;
11039;SDS011;5573;49.592;8.662;2023-12-14T07:41:32;45.23;;;42.63;;
11039;SDS011;5573;49.592;8.662;2023-12-14T07:44:00;40.33;;;37.97;;
11039;SDS011;5573;49.592;8.662;2023-12-14T07:46:32;41.57;;;39.13;;
11039;SDS011;5573;49.592;8.662;2023-12-14T07:49:01;44.27;;;41.80;;
11039;SDS011;5573;49.592;8.662;2023-12-14T07:51:29;44.73;;;42.23;;
11039;SDS011;5573;49.592;8.662;2023-12-14T07:53:58;49.30;;;46.50;;
11039;SDS011;5573;49.592;8.662;2023-12-14T07:56:26;42.73;;;40.30;;
11039;SDS011;5573;49.592;8.662;2023-12-14T07:58:54;42.63;;;40.20;;
11039;SDS011;5573;49.592;8.662;2023-12-14T08:01:22;49.53;;;46.77;;
11039;SDS011;5573;49.592;8.662;2023-12-14T08:03:50;45.80;;;43.13;;
11039;SDS011;5573;49.592;8.662;2023-12-14T08:06:17;45.03;;;42.40;;
11039;SDS011;5573;49.592;8.662;2023-12-14T08:08:45;42.33;;;39.97;;
11039;SDS011;5573;49.592;8.662;2023-12-14T08:11:14;45.20;;;42.50;;
11039;SDS011;5573;49.592;8.662;2023-12-14T08:13:42;42.70;;;40.23;;
11039;SDS011;5573;49.592;8.662;2023-12-14T08:16:10;42.57;;;40.17;;
11039;SDS011;5573;49.592;8.662;2023-12-14T08:18:38;43.10;;;40.67;;
11039;SDS011;5573;49.592;8.662;2023-12-14T08:21:07;44.90;;;42.47;;
11039;SDS011;5573;49.592;8.662;2023-12-14T08:23:38;41.20;;;38.73;;
11039;SDS011;5573;49.592;8.662;2023-12-14T08:26:06;45.87;;;43.37;;
11039;SDS011;5573;49.592;8.662;2023-12-14T08:28:36;42.80;;;40.53;;
11039;SDS011;5573;49.592;8.662;2023-12-14T08:31:04;46.77;;;44.13;;
11039;SDS011;5573;49.592;8.662;2023-12-14T08:33:32;45.67;;;43.03;;
11039;SDS011;5573;49.592;8.662;2023-12-14T08:35:59;46.77;;;44.20;;
11039;SDS011;5573;49.592;8.662;2023-12-14T08:38:27;45.37;;;42.83;;
11039;SDS011;5573;49.592;8.662;2023-12-14T08:40:55;45.67;;;43.10;;
11039;SDS011;5573;49.592;8.662;2023-12-14T08:43:23;45.17;;;42.63;;
11039;SDS011;5573;49.592;8.662;2023-12-14T08:45:52;44.95;;;42.47;;
11039;SDS011;5573;49.592;8.662;2023-12-14T08:48:20;43.37;;;40.73;;
11039;SDS011;5573;49.592;8.662;2023-12-14T08:50:47;45.80;;;43.13;;
11039;SDS011;5573;49.592;8.662;2023-12-14T08:53:15;46.23;;;43.50;;
11039;SDS011;5573;49.592;8.662;2023-12-14T08:55:43;45.03;;;42.57;;
11039;SDS011;5573;49.592;8.662;2023-12-14T08:58:10;46.27;;;43.77;;
11039;SDS011;5573;49.592;8.662;2023-12-14T09:00:39;45.07;;;42.63;;
11039;SDS011;5573;49.592;8.662;2023-12-14T09:03:08;43.20;;;40.83;;
11039;SDS011;5573;49.592;8.662;2023-12-14T09:05:37;45.03;;;42.47;;
11039;SDS011;5573;49.592;8.662;2023-12-14T09:08:08;44.00;;;41.53;;
11039;SDS011;5573;49.592;8.662;2023-12-14T09:10:36;41.00;;;38.70;;
11039;SDS011;5573;49.592;8.662;2023-12-14T09:13:04;43.83;;;41.37;;
11039;SDS011;5573;49.592;8.662;2023-12-14T09:15:32;45.23;;;42.77;;
11039;SDS011;5573;49.592;8.662;2023-12-14T09:18:02;45.57;;;43.03;;
11039;SDS011;5573;49.592;8.662;2023-12-14T09:20:31;44.37;;;41.70;;
11039;SDS011;5573;49.592;8.662;2023-12-14T09:23:01;45.67;;;43.22;;
11039;SDS011;5573;49.592;8.662;2023-12-14T09:25:29;47.03;;;44.37;;
11039;SDS011;5573;49.592;8.662;2023-12-14T09:27:57;43.20;;;40.72;;
11039;SDS011;5573;49.592;8.662;2023-12-14T09:30:25;48.50;;;45.87;;
11039;SDS011;5573;49.592;8.662;2023-12-14T09:32:53;45.33;;;42.80;;
11039;SDS011;5573;49.592;8.662;2023-12-14T09:35:21;45.80;;;43.20;;
11039;SDS011;5573;49.592;8.662;2023-12-14T09:37:50;47.07;;;44.37;;
11039;SDS011;5573;49.592;8.662;2023-12-14T09:40:18;47.10;;;44.50;;
11039;SDS011;5573;49.592;8.662;2023-12-14T09:42:46;45.07;;;42.57;;
11039;SDS011;5573;49.592;8.662;2023-12-14T09:45:14;42.78;;;40.35;;
11039;SDS011;5573;49.592;8.662;2023-12-14T09:47:43;45.73;;;43.13;;
11039;SDS011;5573;49.592;8.662;2023-12-14T09:50:14;46.97;;;44.33;;
11039;SDS011;5573;49.592;8.662;2023-12-14T09:52:42;48.67;;;45.80;;
11039;SDS011;5573;49.592;8.662;2023-12-14T09:55:13;46.90;;;44.30;;
11039;SDS011;5573;49.592;8.662;2023-12-14T09:57:41;46.72;;;44.15;;
11039;SDS011;5573;49.592;8.662;2023-12-14T10:00:09;47.30;;;44.60;;
11039;SDS011;5573;49.592;8.662;2023-12-14T10:02:40;48.70;;;45.97;;
11039;SDS011;5573;49.592;8.662;2023-12-14T10:05:09;47.67;;;44.87;;
11039;SDS011;5573;49.592;8.662;2023-12-14T10:07:40;51.20;;;48.10;;
11039;SDS011;5573;49.592;8.662;2023-12-14T10:10:09;46.83;;;44.27;;
11039;SDS011;5573;49.592;8.662;2023-12-14T10:12:51;47.08;;;44.38;;
11039;SDS011;5573;49.592;8.662;2023-12-14T10:15:20;47.53;;;44.87;;
11039;SDS011;5573;49.592;8.662;2023-12-14T10:17:51;48.40;;;45.73;;
11039;SDS011;5573;49.592;8.662;2023-12-14T10:20:20;43.88;;;41.28;;
11039;SDS011;5573;49.592;8.662;2023-12-14T10:22:50;43.90;;;41.40;;
11039;SDS011;5573;49.592;8.662;2023-12-14T10:25:18;51.40;;;48.60;;
11039;SDS011;5573;49.592;8.662;2023-12-14T10:27:46;46.03;;;43.50;;
11039;SDS011;5573;49.592;8.662;2023-12-14T10:30:15;48.25;;;45.63;;
11039;SDS011;5573;49.592;8.662;2023-12-14T10:32:43;53.05;;;50.15;;
11039;SDS011;5573;49.592;8.662;2023-12-14T10:35:11;49.17;;;46.50;;
11039;SDS011;5573;49.592;8.662;2023-12-14T10:37:39;49.35;;;46.72;;
11039;SDS011;5573;49.592;8.662;2023-12-14T10:40:08;48.42;;;45.80;;
11039;SDS011;5573;49.592;8.662;2023-12-14T10:42:37;49.97;;;47.30;;
11039;SDS011;5573;49.592;8.662;2023-12-14T10:45:11;49.70;;;47.00;;
11039;SDS011;5573;49.592;8.662;2023-12-14T10:47:47;48.45;;;45.83;;
11039;SDS011;5573;49.592;8.662;2023-12-14T10:50:17;48.83;;;46.03;;
11039;SDS011;5573;49.592;8.662;2023-12-14T10:52:46;46.88;;;44.30;;
11039;SDS011;5573;49.592;8.662;2023-12-14T10:55:15;45.17;;;42.67;;
11039;SDS011;5573;49.592;8.662;2023-12-14T10:57:48;49.75;;;46.97;;
11039;SDS011;5573;49.592;8.662;2023-12-14T11:00:18;47.35;;;44.72;;
11039;SDS011;5573;49.592;8.662;2023-12-14T11:02:48;45.42;;;42.95;;
11039;SDS011;5573;49.592;8.662;2023-12-14T11:05:16;47.20;;;44.67;;
11039;SDS011;5573;49.592;8.662;2023-12-14T11:07:50;47.85;;;45.17;;
11039;SDS011;5573;49.592;8.662;2023-12-14T11:10:22;49.10;;;46.42;;
11039;SDS011;5573;49.592;8.662;2023-12-14T11:12:51;49.28;;;46.67;;
11039;SDS011;5573;49.592;8.662;2023-12-14T11:15:23;46.03;;;43.53;;
11039;SDS011;5573;49.592;8.662;2023-12-14T11:20:49;43.25;;;40.92;;
11039;SDS011;5573;49.592;8.662;2023-12-14T11:23:26;46.75;;;44.20;;
11039;SDS011;5573;49.592;8.662;2023-12-14T11:25:57;44.35;;;41.90;;
11039;SDS011;5573;49.592;8.662;2023-12-14T11:28:27;43.70;;;41.25;;
11039;SDS011;5573;49.592;8.662;2023-12-14T11:30:56;43.80;;;41.40;;
11039;SDS011;5573;49.592;8.662;2023-12-14T11:33:26;46.17;;;43.65;;
11039;SDS011;5573;49.592;8.662;2023-12-14T11:35:55;47.50;;;44.88;;
11039;SDS011;5573;49.592;8.662;2023-12-14T11:38:24;40.83;;;38.58;;
11039;SDS011;5573;49.592;8.662;2023-12-14T11:40:52;40.67;;;38.50;;
11039;SDS011;5573;49.592;8.662;2023-12-14T11:43:20;42.85;;;40.38;;
11039;SDS011;5573;49.592;8.662;2023-12-14T11:45:49;42.67;;;40.05;;
11039;SDS011;5573;49.592;8.662;2023-12-14T11:48:17;44.08;;;41.45;;
11039;SDS011;5573;49.592;8.662;2023-12-14T11:50:48;44.35;;;41.85;;
11039;SDS011;5573;49.592;8.662;2023-12-14T11:53:16;44.05;;;41.58;;
11039;SDS011;5573;49.592;8.662;2023-12-14T11:55:45;45.78;;;43.17;;
11039;SDS011;5573;49.592;8.662;2023-12-14T11:58:13;46.95;;;44.40;;
11039;SDS011;5573;49.592;8.662;2023-12-14T12:00:43;45.92;;;43.35;;
11039;SDS011;5573;49.592;8.662;2023-12-14T12:03:14;44.13;;;41.70;;
11039;SDS011;5573;49.592;8.662;2023-12-14T12:05:43;42.20;;;39.88;;
11039;SDS011;5573;49.592;8.662;2023-12-14T12:08:14;41.72;;;39.47;;
11039;SDS011;5573;49.592;8.662;2023-12-14T12:10:47;43.55;;;41.10;;
11039;SDS011;5573;49.592;8.662;2023-12-14T12:13:16;42.20;;;39.95;;
11039;SDS011;5573;49.592;8.662;2023-12-14T12:15:45;44.80;;;42.45;;
11039;SDS011;5573;49.592;8.662;2023-12-14T12:18:14;41.25;;;39.00;;
11039;SDS011;5573;49.592;8.662;2023-12-14T12:20:44;43.08;;;40.65;;
11039;SDS011;5573;49.592;8.662;2023-12-14T12:23:13;45.13;;;42.78;;
11039;SDS011;5573;49.592;8.662;2023-12-14T12:25:42;42.10;;;39.85;;
11039;SDS011;5573;49.592;8.662;2023-12-14T12:28:10;43.38;;;40.85;;
11039;SDS011;5573;49.592;8.662;2023-12-14T12:30:38;43.90;;;41.47;;
11039;SDS011;5573;49.592;8.662;2023-12-14T12:33:07;46.80;;;44.35;;
11039;SDS011;5573;49.592;8.662;2023-12-14T12:35:35;44.57;;;42.20;;
11039;SDS011;5573;49.592;8.662;2023-12-14T12:38:03;40.03;;;37.90;;
11039;SDS011;5573;49.592;8.662;2023-12-14T12:40:32;40.60;;;38.40;;
11039;SDS011;5573;49.592;8.662;2023-12-14T12:43:00;40.55;;;38.30;;
11039;SDS011;5573;49.592;8.662;2023-12-14T12:45:29;41.03;;;38.80;;
11039;SDS011;5573;49.592;8.662;2023-12-14T12:47:58;44.07;;;41.70;;
11039;SDS011;5573;49.592;8.662;2023-12-14T12:50:27;43.30;;;40.97;;
11039;SDS011;5573;49.592;8.662;2023-12-14T12:52:55;38.15;;;36.20;;
11039;SDS011;5573;49.592;8.662;2023-12-14T12:55:23;41.13;;;38.92;;
11039;SDS011;5573;49.592;8.662;2023-12-14T12:57:52;41.70;;;39.42;;
11039;SDS011;5573;49.592;8.662;2023-12-14T13:00:20;40.70;;;38.53;;
11039;SDS011;5573;49.592;8.662;2023-12-14T13:02:49;42.63;;;40.33;;
11039;SDS011;5573;49.592;8.662;2023-12-14T13:05:17;42.20;;;39.92;;
11039;SDS011;5573;49.592;8.662;2023-12-14T13:07:46;43.28;;;40.80;;
11039;SDS011;5573;49.592;8.662;2023-12-14T13:10:14;44.75;;;42.35;;
11039;SDS011;5573;49.592;8.662;2023-12-14T13:12:57;38.53;;;36.47;;
11039;SDS011;5573;49.592;8.662;2023-12-14T13:15:26;40.33;;;38.15;;
11039;SDS011;5573;49.592;8.662;2023-12-14T13:17:57;41.58;;;39.40;;
11039;SDS011;5573;49.592;8.662;2023-12-14T13:20:25;41.05;;;38.92;;
11039;SDS011;5573;49.592;8.662;2023-12-14T13:22:53;42.30;;;40.00;;
11039;SDS011;5573;49.592;8.662;2023-12-14T13:25:21;43.38;;;40.78;;
11039;SDS011;5573;49.592;8.662;2023-12-14T13:27:52;45.15;;;42.70;;
11039;SDS011;5573;49.592;8.662;2023-12-14T13:30:21;42.70;;;40.45;;
11039;SDS011;5573;49.592;8.662;2023-12-14T13:32:50;42.65;;;40.15;;
11039;SDS011;5573;49.592;8.662;2023-12-14T13:35:20;43.50;;;41.15;;
11039;SDS011;5573;49.592;8.662;2023-12-14T13:37:48;41.00;;;38.85;;
11039;SDS011;5573;49.592;8.662;2023-12-14T13:40:16;44.97;;;42.58;;
11039;SDS011;5573;49.592;8.662;2023-12-14T13:42:45;45.00;;;42.22;;
11039;SDS011;5573;49.592;8.662;2023-12-14T13:45:30;41.80;;;39.58;;
11039;SDS011;5573;49.592;8.662;2023-12-14T13:47:58;42.88;;;40.63;;
11039;SDS011;5573;49.592;8.662;2023-12-14T13:50:26;45.58;;;43.15;;
11039;SDS011;5573;49.592;8.662;2023-12-14T13:52:55;44.08;;;41.55;;
11039;SDS011;5573;49.592;8.662;2023-12-14T13:55:23;47.80;;;45.17;;
11039;SDS011;5573;49.592;8.662;2023-12-14T13:57:51;47.45;;;44.92;;
11039;SDS011;5573;49.592;8.662;2023-12-14T14:00:19;45.50;;;43.00;;
11039;SDS011;5573;49.592;8.662;2023-12-14T14:02:49;43.08;;;40.75;;
11039;SDS011;5573;49.592;8.662;2023-12-14T14:05:17;44.58;;;42.25;;
11039;SDS011;5573;49.592;8.662;2023-12-14T14:07:45;42.65;;;40.35;;
11039;SDS011;5573;49.592;8.662;2023-12-14T14:10:14;48.33;;;45.67;;
11039;SDS011;5573;49.592;8.662;2023-12-14T14:12:41;45.55;;;43.15;;
11039;SDS011;5573;49.592;8.662;2023-12-14T14:15:10;48.30;;;45.75;;
11039;SDS011;5573;49.592;8.662;2023-12-14T14:17:38;43.70;;;41.38;;
11039;SDS011;5573;49.592;8.662;2023-12-14T14:20:08;48.38;;;45.67;;
11039;SDS011;5573;49.592;8.662;2023-12-14T14:22:37;49.05;;;46.38;;
11039;SDS011;5573;49.592;8.662;2023-12-14T14:25:05;49.83;;;47.15;;
11039;SDS011;5573;49.592;8.662;2023-12-14T14:27:34;45.70;;;43.17;;
11039;SDS011;5573;49.592;8.662;2023-12-14T14:30:02;47.67;;;45.17;;
11039;SDS011;5573;49.592;8.662;2023-12-14T14:32:31;46.15;;;43.72;;
11039;SDS011;5573;49.592;8.662;2023-12-14T14:35:02;42.33;;;39.97;;
11039;SDS011;5573;49.592;8.662;2023-12-14T14:37:32;43.90;;;41.50;;
11039;SDS011;5573;49.592;8.662;2023-12-14T14:40:01;40.03;;;37.97;;
11039;SDS011;5573;49.592;8.662;2023-12-14T14:42:30;44.00;;;41.70;;
11039;SDS011;5573;49.592;8.662;2023-12-14T14:44:59;39.93;;;37.83;;